sensor_id;sensor_type;location;lat;lon;timestamp;pressure;altitude;pressure_sealevel;temperature;humidity
80198;BME280;69517;52.030;7.106;2023-08-01T00:00:44;98997.81;;;22.17;94.87
80198;BME280;69517;52.030;7.106;2023-08-01T00:03:10;98994.06;;;22.20;94.61
80198;BME280;69517;52.030;7.106;2023-08-01T00:05:38;98998.50;;;22.19;94.78
80198;BME280;69517;52.030;7.106;2023-08-01T00:08:09;98991.72;;;22.17;94.88
80198;BME280;69517;52.030;7.106;2023-08-01T00:10:37;98989.06;;;22.17;94.58
80198;BME280;69517;52.030;7.106;2023-08-01T00:13:03;98983.00;;;22.16;94.76
80198;BME280;69517;52.030;7.106;2023-08-01T00:15:31;98977.56;;;22.18;94.52
80198;BME280;69517;52.030;7.106;2023-08-01T00:17:57;98975.09;;;22.16;94.84
80198;BME280;69517;52.030;7.106;2023-08-01T00:20:23;98972.47;;;22.16;94.68
80198;BME280;69517;52.030;7.106;2023-08-01T00:22:49;98961.78;;;22.18;94.68
80198;BME280;69517;52.030;7.106;2023-08-01T00:25:16;98967.34;;;22.15;94.67
80198;BME280;69517;52.030;7.106;2023-08-01T00:27:43;98962.75;;;22.17;94.89
80198;BME280;69517;52.030;7.106;2023-08-01T00:30:09;98959.16;;;22.18;94.36
80198;BME280;69517;52.030;7.106;2023-08-01T00:32:37;98956.66;;;22.16;94.57
80198;BME280;69517;52.030;7.106;2023-08-01T00:35:04;98940.88;;;22.16;94.79
80198;BME280;69517;52.030;7.106;2023-08-01T00:37:30;98943.50;;;22.16;94.39
80198;BME280;69517;52.030;7.106;2023-08-01T00:39:56;98935.75;;;22.15;94.76
80198;BME280;69517;52.030;7.106;2023-08-01T00:42:22;98944.47;;;22.15;94.75
80198;BME280;69517;52.030;7.106;2023-08-01T00:44:49;98942.81;;;22.14;94.54
80198;BME280;69517;52.030;7.106;2023-08-01T00:47:16;98934.78;;;22.16;94.63
80198;BME280;69517;52.030;7.106;2023-08-01T00:49:43;98933.28;;;22.13;94.62
80198;BME280;69517;52.030;7.106;2023-08-01T00:52:10;98930.34;;;22.16;94.42
80198;BME280;69517;52.030;7.106;2023-08-01T00:54:36;98934.78;;;22.16;92.92
80198;BME280;69517;52.030;7.106;2023-08-01T00:57:03;98930.34;;;22.16;94.53
80198;BME280;69517;52.030;7.106;2023-08-01T00:59:29;98931.16;;;22.17;94.04
80198;BME280;69517;52.030;7.106;2023-08-01T01:01:55;98915.84;;;22.12;94.73
80198;BME280;69517;52.030;7.106;2023-08-01T01:04:22;98914.03;;;22.13;94.65
80198;BME280;69517;52.030;7.106;2023-08-01T01:06:51;98915.53;;;22.15;94.66
80198;BME280;69517;52.030;7.106;2023-08-01T01:09:19;98911.78;;;22.18;94.37
80198;BME280;69517;52.030;7.106;2023-08-01T01:11:45;98907.94;;;22.12;94.72
80198;BME280;69517;52.030;7.106;2023-08-01T01:14:12;98894.66;;;22.14;94.21
80198;BME280;69517;52.030;7.106;2023-08-01T01:16:38;98885.25;;;22.11;94.58
80198;BME280;69517;52.030;7.106;2023-08-01T01:19:06;98895.44;;;22.14;94.42
80198;BME280;69517;52.030;7.106;2023-08-01T01:24:32;98903.50;;;22.13;94.72
80198;BME280;69517;52.030;7.106;2023-08-01T01:26:59;98893.97;;;22.12;94.54
80198;BME280;69517;52.030;7.106;2023-08-01T01:29:29;98888.56;;;22.13;94.56
80198;BME280;69517;52.030;7.106;2023-08-01T01:31:55;98896.28;;;22.15;94.35
80198;BME280;69517;52.030;7.106;2023-08-01T01:34:21;98886.56;;;22.15;93.93
80198;BME280;69517;52.030;7.106;2023-08-01T01:36:48;98888.69;;;22.12;94.68
80198;BME280;69517;52.030;7.106;2023-08-01T01:39:14;98879.16;;;22.11;94.76
80198;BME280;69517;52.030;7.106;2023-08-01T01:41:41;98874.56;;;22.13;93.48
80198;BME280;69517;52.030;7.106;2023-08-01T01:44:08;98865.69;;;22.14;94.39
80198;BME280;69517;52.030;7.106;2023-08-01T01:46:34;98870.78;;;22.15;94.20
80198;BME280;69517;52.030;7.106;2023-08-01T01:49:00;98873.59;;;22.14;93.84
80198;BME280;69517;52.030;7.106;2023-08-01T01:51:26;98868.47;;;22.12;94.54
80198;BME280;69517;52.030;7.106;2023-08-01T01:53:53;98851.84;;;22.12;94.23
80198;BME280;69517;52.030;7.106;2023-08-01T01:56:19;98859.75;;;22.12;94.47
80198;BME280;69517;52.030;7.106;2023-08-01T01:58:47;98853.66;;;22.11;93.75
80198;BME280;69517;52.030;7.106;2023-08-01T02:01:13;98854.34;;;22.13;94.31
80198;BME280;69517;52.030;7.106;2023-08-01T02:03:39;98855.31;;;22.12;93.95
80198;BME280;69517;52.030;7.106;2023-08-01T02:06:05;98852.84;;;22.11;94.37
80198;BME280;69517;52.030;7.106;2023-08-01T02:08:32;98849.38;;;22.10;93.79
80198;BME280;69517;52.030;7.106;2023-08-01T02:10:58;98855.47;;;22.11;94.42
80198;BME280;69517;52.030;7.106;2023-08-01T02:13:24;98855.31;;;22.12;94.54
80198;BME280;69517;52.030;7.106;2023-08-01T02:15:52;98852.00;;;22.10;94.20
80198;BME280;69517;52.030;7.106;2023-08-01T02:18:18;98852.97;;;22.09;94.54
80198;BME280;69517;52.030;7.106;2023-08-01T02:20:44;98843.28;;;22.10;94.43
80198;BME280;69517;52.030;7.106;2023-08-01T02:23:10;98849.38;;;22.10;94.27
80198;BME280;69517;52.030;7.106;2023-08-01T02:25:38;98843.13;;;22.11;94.31
80198;BME280;69517;52.030;7.106;2023-08-01T02:28:04;98851.03;;;22.11;94.24
80198;BME280;69517;52.030;7.106;2023-08-01T02:30:30;98846.59;;;22.12;94.24
80198;BME280;69517;52.030;7.106;2023-08-01T02:32:58;98850.06;;;22.12;94.20
80198;BME280;69517;52.030;7.106;2023-08-01T02:35:24;98846.44;;;22.13;93.98
80198;BME280;69517;52.030;7.106;2023-08-01T02:37:50;98848.69;;;22.08;94.49
80198;BME280;69517;52.030;7.106;2023-08-01T02:40:16;98846.75;;;22.10;94.27
80198;BME280;69517;52.030;7.106;2023-08-01T02:42:43;98846.75;;;22.10;93.70
80198;BME280;69517;52.030;7.106;2023-08-01T02:45:09;98846.06;;;22.08;94.33
80198;BME280;69517;52.030;7.106;2023-08-01T02:47:35;98854.78;;;22.09;94.38
80198;BME280;69517;52.030;7.106;2023-08-01T02:50:03;98852.00;;;22.10;94.39
80198;BME280;69517;52.030;7.106;2023-08-01T02:52:29;98850.34;;;22.09;94.12
80198;BME280;69517;52.030;7.106;2023-08-01T02:54:57;98850.19;;;22.11;93.69
80198;BME280;69517;52.030;7.106;2023-08-01T02:57:23;98860.03;;;22.09;94.52
80198;BME280;69517;52.030;7.106;2023-08-01T02:59:49;98845.41;;;22.06;94.19
80198;BME280;69517;52.030;7.106;2023-08-01T03:02:16;98847.06;;;22.07;94.41
80198;BME280;69517;52.030;7.106;2023-08-01T03:04:42;98854.78;;;22.09;94.37
80198;BME280;69517;52.030;7.106;2023-08-01T03:07:09;98848.69;;;22.08;94.25
80198;BME280;69517;52.030;7.106;2023-08-01T03:09:36;98852.31;;;22.07;94.40
80198;BME280;69517;52.030;7.106;2023-08-01T03:12:02;98850.66;;;22.06;94.25
80198;BME280;69517;52.030;7.106;2023-08-01T03:14:28;98851.31;;;22.08;93.92
80198;BME280;69517;52.030;7.106;2023-08-01T03:16:55;98849.38;;;22.10;94.10
80198;BME280;69517;52.030;7.106;2023-08-01T03:19:21;98853.16;;;22.08;94.21
80198;BME280;69517;52.030;7.106;2023-08-01T03:21:49;98853.31;;;22.06;94.45
80198;BME280;69517;52.030;7.106;2023-08-01T03:24:17;98853.31;;;22.06;94.36
80198;BME280;69517;52.030;7.106;2023-08-01T03:26:43;98860.22;;;22.07;94.24
80198;BME280;69517;52.030;7.106;2023-08-01T03:29:09;98861.69;;;22.10;94.17
80198;BME280;69517;52.030;7.106;2023-08-01T03:31:35;98860.03;;;22.09;94.25
80198;BME280;69517;52.030;7.106;2023-08-01T03:34:02;98862.84;;;22.07;94.21
80198;BME280;69517;52.030;7.106;2023-08-01T03:36:28;98865.63;;;22.06;94.14
80198;BME280;69517;52.030;7.106;2023-08-01T03:38:55;98865.63;;;22.06;94.23
80198;BME280;69517;52.030;7.106;2023-08-01T03:41:22;98867.94;;;22.09;94.00
80198;BME280;69517;52.030;7.106;2023-08-01T03:43:48;98866.47;;;22.06;94.31
80198;BME280;69517;52.030;7.106;2023-08-01T03:46:15;98869.75;;;22.08;94.08
80198;BME280;69517;52.030;7.106;2023-08-01T03:48:41;98871.72;;;22.06;93.86
80198;BME280;69517;52.030;7.106;2023-08-01T03:51:08;98876.00;;;22.07;93.95
80198;BME280;69517;52.030;7.106;2023-08-01T03:53:34;98869.25;;;22.05;94.09
80198;BME280;69517;52.030;7.106;2023-08-01T03:56:01;98876.00;;;22.07;94.12
80198;BME280;69517;52.030;7.106;2023-08-01T03:58:29;98875.34;;;22.05;94.12
80198;BME280;69517;52.030;7.106;2023-08-01T04:00:55;98877.13;;;22.05;94.11
80198;BME280;69517;52.030;7.106;2023-08-01T04:03:21;98869.25;;;22.05;94.00
80198;BME280;69517;52.030;7.106;2023-08-01T04:05:47;98869.25;;;22.05;93.96
80198;BME280;69517;52.030;7.106;2023-08-01T04:08:14;98873.69;;;22.04;94.18
80198;BME280;69517;52.030;7.106;2023-08-01T04:10:40;98874.50;;;22.05;93.91
80198;BME280;69517;52.030;7.106;2023-08-01T04:13:06;98869.09;;;22.06;94.01
80198;BME280;69517;52.030;7.106;2023-08-01T04:15:34;98874.50;;;22.05;94.32
80198;BME280;69517;52.030;7.106;2023-08-01T04:18:00;98880.88;;;22.02;94.33
80198;BME280;69517;52.030;7.106;2023-08-01T04:20:26;98884.34;;;22.03;94.11
80198;BME280;69517;52.030;7.106;2023-08-01T04:22:52;98875.63;;;22.02;93.87
80198;BME280;69517;52.030;7.106;2023-08-01T04:25:19;98884.53;;;22.01;94.46
80198;BME280;69517;52.030;7.106;2023-08-01T04:27:45;98882.88;;;22.00;94.52
80198;BME280;69517;52.030;7.106;2023-08-01T04:30:12;98880.06;;;22.02;94.11
80198;BME280;69517;52.030;7.106;2023-08-01T04:32:39;98875.81;;;22.01;94.24
80198;BME280;69517;52.030;7.106;2023-08-01T04:35:06;98887.31;;;22.00;94.43
80198;BME280;69517;52.030;7.106;2023-08-01T04:37:32;98885.50;;;22.00;94.38
80198;BME280;69517;52.030;7.106;2023-08-01T04:39:58;98887.44;;;21.98;94.52
80198;BME280;69517;52.030;7.106;2023-08-01T04:42:25;98895.19;;;22.00;94.18
80198;BME280;69517;52.030;7.106;2023-08-01T04:44:51;98896.16;;;21.99;94.52
80198;BME280;69517;52.030;7.106;2023-08-01T04:47:18;98895.84;;;22.02;94.24
80198;BME280;69517;52.030;7.106;2023-08-01T04:49:46;98892.72;;;21.98;94.34
80198;BME280;69517;52.030;7.106;2023-08-01T04:52:12;98891.88;;;21.98;94.56
80198;BME280;69517;52.030;7.106;2023-08-01T04:54:38;98891.75;;;21.99;94.38
80198;BME280;69517;52.030;7.106;2023-08-01T04:57:05;98896.16;;;21.99;94.30
80198;BME280;69517;52.030;7.106;2023-08-01T04:59:31;98895.47;;;21.97;94.41
80198;BME280;69517;52.030;7.106;2023-08-01T05:01:58;98895.47;;;21.97;94.47
80198;BME280;69517;52.030;7.106;2023-08-01T05:04:24;98896.31;;;21.97;94.16
80198;BME280;69517;52.030;7.106;2023-08-01T05:06:52;98894.50;;;21.98;94.20
80198;BME280;69517;52.030;7.106;2023-08-01T05:09:18;98890.22;;;21.97;94.16
80198;BME280;69517;52.030;7.106;2023-08-01T05:11:44;98892.03;;;21.96;94.38
80198;BME280;69517;52.030;7.106;2023-08-01T05:14:10;98896.47;;;21.96;93.93
80198;BME280;69517;52.030;7.106;2023-08-01T05:16:37;98891.88;;;21.98;94.32
80198;BME280;69517;52.030;7.106;2023-08-01T05:19:03;98892.31;;;21.93;94.41
80198;BME280;69517;52.030;7.106;2023-08-01T05:21:29;98889.53;;;21.95;94.12
80198;BME280;69517;52.030;7.106;2023-08-01T05:23:57;98893.03;;;21.95;94.19
80198;BME280;69517;52.030;7.106;2023-08-01T05:26:24;98898.13;;;21.97;94.06
80198;BME280;69517;52.030;7.106;2023-08-01T05:28:50;98907.97;;;21.95;93.67
80198;BME280;69517;52.030;7.106;2023-08-01T05:31:16;98906.19;;;21.95;94.16
80198;BME280;69517;52.030;7.106;2023-08-01T05:33:43;98903.56;;;21.95;94.24
80198;BME280;69517;52.030;7.106;2023-08-01T05:36:09;98916.72;;;21.95;94.11
80198;BME280;69517;52.030;7.106;2023-08-01T05:38:35;98920.69;;;21.99;94.17
80198;BME280;69517;52.030;7.106;2023-08-01T05:41:03;98919.16;;;21.97;93.58
80198;BME280;69517;52.030;7.106;2023-08-01T05:43:29;98918.88;;;22.00;93.97
80198;BME280;69517;52.030;7.106;2023-08-01T05:45:55;98929.41;;;22.00;94.05
80198;BME280;69517;52.030;7.106;2023-08-01T05:48:21;98925.81;;;22.01;94.05
80198;BME280;69517;52.030;7.106;2023-08-01T05:50:48;98928.25;;;22.02;93.80
80198;BME280;69517;52.030;7.106;2023-08-01T05:53:14;98925.47;;;22.04;93.91
80198;BME280;69517;52.030;7.106;2023-08-01T05:55:40;98930.59;;;22.05;94.08
80198;BME280;69517;52.030;7.106;2023-08-01T05:58:08;98936.53;;;22.07;93.92
80198;BME280;69517;52.030;7.106;2023-08-01T06:00:34;98935.94;;;22.13;93.85
80198;BME280;69517;52.030;7.106;2023-08-01T06:03:00;98935.09;;;22.13;94.40
80198;BME280;69517;52.030;7.106;2023-08-01T06:05:27;98926.66;;;22.09;94.42
80198;BME280;69517;52.030;7.106;2023-08-01T06:07:54;98935.94;;;22.13;93.92
80198;BME280;69517;52.030;7.106;2023-08-01T06:10:20;98936.75;;;22.14;94.46
80198;BME280;69517;52.030;7.106;2023-08-01T06:12:46;98945.44;;;22.14;94.39
80198;BME280;69517;52.030;7.106;2023-08-01T06:15:14;98939.22;;;22.15;94.11
80198;BME280;69517;52.030;7.106;2023-08-01T06:17:40;98937.41;;;22.16;94.22
80198;BME280;69517;52.030;7.106;2023-08-01T06:20:07;98933.66;;;22.18;94.43
80198;BME280;69517;52.030;7.106;2023-08-01T06:22:33;98917.88;;;22.18;94.82
80198;BME280;69517;52.030;7.106;2023-08-01T06:24:59;98926.13;;;22.23;95.24
80198;BME280;69517;52.030;7.106;2023-08-01T06:27:26;98928.41;;;22.18;95.49
80198;BME280;69517;52.030;7.106;2023-08-01T06:29:52;98923.13;;;22.18;95.13
80198;BME280;69517;52.030;7.106;2023-08-01T06:32:20;98920.34;;;22.20;95.15
80198;BME280;69517;52.030;7.106;2023-08-01T06:34:46;98916.06;;;22.19;94.96
80198;BME280;69517;52.030;7.106;2023-08-01T06:37:12;98925.63;;;22.20;95.23
80198;BME280;69517;52.030;7.106;2023-08-01T06:39:38;98935.13;;;22.21;95.23
80198;BME280;69517;52.030;7.106;2023-08-01T06:42:05;98946.50;;;22.21;95.24
80198;BME280;69517;52.030;7.106;2023-08-01T06:44:31;98938.59;;;22.21;95.40
80198;BME280;69517;52.030;7.106;2023-08-01T06:46:57;98945.53;;;22.22;95.61
80198;BME280;69517;52.030;7.106;2023-08-01T06:49:25;98944.22;;;22.26;95.61
80198;BME280;69517;52.030;7.106;2023-08-01T06:51:51;98942.22;;;22.20;95.49
80198;BME280;69517;52.030;7.106;2023-08-01T06:54:18;98943.16;;;22.11;95.59
80198;BME280;69517;52.030;7.106;2023-08-01T06:56:44;98941.94;;;22.06;95.68
80198;BME280;69517;52.030;7.106;2023-08-01T06:59:12;98938.78;;;22.02;95.48
80198;BME280;69517;52.030;7.106;2023-08-01T07:01:38;98935.50;;;22.00;94.91
80198;BME280;69517;52.030;7.106;2023-08-01T07:04:05;98932.19;;;21.98;95.46
80198;BME280;69517;52.030;7.106;2023-08-01T07:06:33;98936.47;;;21.99;95.03
80198;BME280;69517;52.030;7.106;2023-08-01T07:08:59;98935.50;;;22.00;95.19
80198;BME280;69517;52.030;7.106;2023-08-01T07:11:25;98932.53;;;22.03;95.64
80198;BME280;69517;52.030;7.106;2023-08-01T07:13:51;98932.41;;;22.05;95.38
80198;BME280;69517;52.030;7.106;2023-08-01T07:16:18;98933.53;;;22.02;95.36
80198;BME280;69517;52.030;7.106;2023-08-01T07:18:44;98927.06;;;21.97;95.47
80198;BME280;69517;52.030;7.106;2023-08-01T07:21:10;98933.44;;;21.94;95.60
80198;BME280;69517;52.030;7.106;2023-08-01T07:23:38;98935.13;;;21.95;95.75
80198;BME280;69517;52.030;7.106;2023-08-01T07:26:04;98935.78;;;21.97;95.45
80198;BME280;69517;52.030;7.106;2023-08-01T07:28:31;98935.19;;;22.03;95.13
80198;BME280;69517;52.030;7.106;2023-08-01T07:30:57;98931.56;;;22.04;95.19
80198;BME280;69517;52.030;7.106;2023-08-01T07:33:24;98933.53;;;22.02;94.98
80198;BME280;69517;52.030;7.106;2023-08-01T07:35:50;98934.81;;;21.98;95.04
80198;BME280;69517;52.030;7.106;2023-08-01T07:38:16;98938.78;;;22.02;95.06
80198;BME280;69517;52.030;7.106;2023-08-01T07:40:44;98938.63;;;22.04;94.91
80198;BME280;69517;52.030;7.106;2023-08-01T07:43:10;98941.13;;;22.05;95.18
80198;BME280;69517;52.030;7.106;2023-08-01T07:45:37;98931.28;;;22.07;95.49
80198;BME280;69517;52.030;7.106;2023-08-01T07:48:04;98935.53;;;22.08;95.53
80198;BME280;69517;52.030;7.106;2023-08-01T07:50:30;98945.09;;;22.09;95.70
80198;BME280;69517;52.030;7.106;2023-08-01T07:52:57;98943.00;;;22.13;95.60
80198;BME280;69517;52.030;7.106;2023-08-01T07:55:23;98940.66;;;22.10;95.63
80198;BME280;69517;52.030;7.106;2023-08-01T07:57:51;98940.97;;;22.07;95.97
80198;BME280;69517;52.030;7.106;2023-08-01T08:00:17;98941.81;;;22.07;96.05
80198;BME280;69517;52.030;7.106;2023-08-01T08:02:43;98943.59;;;22.07;95.69
80198;BME280;69517;52.030;7.106;2023-08-01T08:05:10;98949.38;;;22.10;95.76
80198;BME280;69517;52.030;7.106;2023-08-01T08:07:36;98955.63;;;22.09;95.17
80198;BME280;69517;52.030;7.106;2023-08-01T08:10:03;98946.06;;;22.08;95.90
80198;BME280;69517;52.030;7.106;2023-08-01T08:12:29;98947.06;;;22.07;95.58
80198;BME280;69517;52.030;7.106;2023-08-01T08:14:57;98954.97;;;22.07;95.83
80198;BME280;69517;52.030;7.106;2023-08-01T08:17:23;98958.56;;;22.06;96.06
80198;BME280;69517;52.030;7.106;2023-08-01T08:19:50;98959.22;;;22.08;96.03
80198;BME280;69517;52.030;7.106;2023-08-01T08:22:16;98958.25;;;22.09;95.96
80198;BME280;69517;52.030;7.106;2023-08-01T08:24:42;98957.28;;;22.10;95.60
80198;BME280;69517;52.030;7.106;2023-08-01T08:27:08;98951.19;;;22.10;95.82
80198;BME280;69517;52.030;7.106;2023-08-01T08:29:35;98957.28;;;22.10;95.72
80198;BME280;69517;52.030;7.106;2023-08-01T08:32:03;98955.63;;;22.09;95.76
80198;BME280;69517;52.030;7.106;2023-08-01T08:34:29;98959.22;;;22.08;95.96
80198;BME280;69517;52.030;7.106;2023-08-01T08:36:55;98953.97;;;22.08;95.28
80198;BME280;69517;52.030;7.106;2023-08-01T08:39:21;98949.69;;;22.07;95.95
80198;BME280;69517;52.030;7.106;2023-08-01T08:41:48;98955.63;;;22.09;95.95
80198;BME280;69517;52.030;7.106;2023-08-01T08:44:15;98950.06;;;22.12;95.96
80198;BME280;69517;52.030;7.106;2023-08-01T08:46:42;98961.56;;;22.11;95.09
80198;BME280;69517;52.030;7.106;2023-08-01T08:49:10;98967.94;;;22.09;94.52
80198;BME280;69517;52.030;7.106;2023-08-01T08:51:36;98972.56;;;22.07;95.14
80198;BME280;69517;52.030;7.106;2023-08-01T08:54:03;98971.63;;;22.16;95.07
80198;BME280;69517;52.030;7.106;2023-08-01T08:56:30;98975.69;;;22.10;95.35
80198;BME280;69517;52.030;7.106;2023-08-01T08:58:57;98976.53;;;22.11;96.23
80198;BME280;69517;52.030;7.106;2023-08-01T09:01:25;98971.13;;;22.12;95.75
80198;BME280;69517;52.030;7.106;2023-08-01T09:03:51;98969.47;;;22.11;95.58
80198;BME280;69517;52.030;7.106;2023-08-01T09:06:21;98965.78;;;22.04;95.03
80198;BME280;69517;52.030;7.106;2023-08-01T09:08:50;98957.66;;;21.98;95.60
80198;BME280;69517;52.030;7.106;2023-08-01T09:11:17;98951.19;;;21.92;94.59
80198;BME280;69517;52.030;7.106;2023-08-01T09:13:43;98950.25;;;21.83;94.28
80198;BME280;69517;52.030;7.106;2023-08-01T09:16:09;98952.38;;;21.80;93.83
80198;BME280;69517;52.030;7.106;2023-08-01T09:18:45;98956.53;;;21.82;94.07
80198;BME280;69517;52.030;7.106;2023-08-01T09:21:12;98944.03;;;21.84;94.37
80198;BME280;69517;52.030;7.106;2023-08-01T09:23:40;98949.00;;;21.88;94.49
80198;BME280;69517;52.030;7.106;2023-08-01T09:26:11;98956.59;;;21.91;94.39
80198;BME280;69517;52.030;7.106;2023-08-01T09:28:38;98953.81;;;21.92;94.53
80198;BME280;69517;52.030;7.106;2023-08-01T09:31:04;98957.72;;;21.88;94.25
80198;BME280;69517;52.030;7.106;2023-08-01T09:33:37;98970.44;;;21.93;93.77
80198;BME280;69517;52.030;7.106;2023-08-01T09:36:04;98985.38;;;21.92;93.65
80198;BME280;69517;52.030;7.106;2023-08-01T09:38:33;98973.19;;;21.91;93.48
80198;BME280;69517;52.030;7.106;2023-08-01T09:41:01;98987.88;;;21.94;94.02
80198;BME280;69517;52.030;7.106;2023-08-01T09:43:32;98977.81;;;21.89;93.52
80198;BME280;69517;52.030;7.106;2023-08-01T09:45:59;98980.81;;;21.94;93.79
80198;BME280;69517;52.030;7.106;2023-08-01T09:48:26;98984.81;;;21.98;93.79
80198;BME280;69517;52.030;7.106;2023-08-01T09:50:52;98995.06;;;22.01;94.23
80198;BME280;69517;52.030;7.106;2023-08-01T09:53:29;98997.50;;;22.03;94.39
80198;BME280;69517;52.030;7.106;2023-08-01T09:55:55;99013.84;;;22.06;94.33
80198;BME280;69517;52.030;7.106;2023-08-01T09:58:23;99013.53;;;22.09;94.18
80198;BME280;69517;52.030;7.106;2023-08-01T10:00:51;99011.88;;;22.08;93.83
80198;BME280;69517;52.030;7.106;2023-08-01T10:03:17;98995.56;;;22.05;94.80
80198;BME280;69517;52.030;7.106;2023-08-01T10:05:44;98996.69;;;22.02;94.99
80198;BME280;69517;52.030;7.106;2023-08-01T10:08:11;99014.25;;;22.02;95.33
80198;BME280;69517;52.030;7.106;2023-08-01T10:10:38;99007.19;;;22.02;94.86
80198;BME280;69517;52.030;7.106;2023-08-01T10:13:04;99005.25;;;22.04;94.91
80198;BME280;69517;52.030;7.106;2023-08-01T10:15:32;99004.28;;;22.05;94.77
80198;BME280;69517;52.030;7.106;2023-08-01T10:17:58;99006.31;;;22.11;94.88
80198;BME280;69517;52.030;7.106;2023-08-01T10:20:25;99000.22;;;22.11;94.25
80198;BME280;69517;52.030;7.106;2023-08-01T10:22:51;99002.09;;;22.18;94.58
80198;BME280;69517;52.030;7.106;2023-08-01T10:25:18;99002.25;;;22.17;94.13
80198;BME280;69517;52.030;7.106;2023-08-01T10:27:56;98999.94;;;22.14;94.44
80198;BME280;69517;52.030;7.106;2023-08-01T10:30:25;98993.28;;;22.10;95.01
80198;BME280;69517;52.030;7.106;2023-08-01T10:32:53;98997.50;;;22.03;94.41
80198;BME280;69517;52.030;7.106;2023-08-01T10:35:23;99004.88;;;22.17;94.77
80198;BME280;69517;52.030;7.106;2023-08-01T10:38:03;99007.25;;;22.28;95.71
80198;BME280;69517;52.030;7.106;2023-08-01T10:43:00;99009.25;;;22.26;95.44
80198;BME280;69517;52.030;7.106;2023-08-01T10:45:26;99003.16;;;22.25;96.02
80198;BME280;69517;52.030;7.106;2023-08-01T10:48:05;99007.25;;;22.28;96.19
80198;BME280;69517;52.030;7.106;2023-08-01T10:50:31;99003.78;;;22.27;96.41
80198;BME280;69517;52.030;7.106;2023-08-01T10:53:02;99006.97;;;22.31;96.71
80198;BME280;69517;52.030;7.106;2023-08-01T10:55:37;99007.81;;;22.32;96.03
80198;BME280;69517;52.030;7.106;2023-08-01T10:58:03;99007.25;;;22.28;95.24
80198;BME280;69517;52.030;7.106;2023-08-01T11:00:30;99011.41;;;22.31;95.59
80198;BME280;69517;52.030;7.106;2023-08-01T11:02:57;99007.25;;;22.28;95.22
80198;BME280;69517;52.030;7.106;2023-08-01T11:05:24;99007.59;;;22.25;94.88
80198;BME280;69517;52.030;7.106;2023-08-01T11:07:54;99001.16;;;22.27;95.27
80198;BME280;69517;52.030;7.106;2023-08-01T11:10:22;99000.34;;;22.27;94.90
80198;BME280;69517;52.030;7.106;2023-08-01T11:12:48;98998.38;;;22.29;95.88
80198;BME280;69517;52.030;7.106;2023-08-01T11:15:14;99001.53;;;22.33;96.50
80198;BME280;69517;52.030;7.106;2023-08-01T11:17:41;99005.81;;;22.34;96.54
80198;BME280;69517;52.030;7.106;2023-08-01T11:20:10;99011.78;;;22.36;94.98
80198;BME280;69517;52.030;7.106;2023-08-01T11:22:37;99030.50;;;22.33;94.87
80198;BME280;69517;52.030;7.106;2023-08-01T11:25:04;99043.66;;;22.33;92.87
80198;BME280;69517;52.030;7.106;2023-08-01T11:27:30;99053.22;;;22.34;95.92
80198;BME280;69517;52.030;7.106;2023-08-01T11:29:57;99060.97;;;22.35;94.67
80198;BME280;69517;52.030;7.106;2023-08-01T11:32:32;99055.25;;;22.40;94.89
80198;BME280;69517;52.030;7.106;2023-08-01T11:34:58;99049.31;;;22.38;95.21
80198;BME280;69517;52.030;7.106;2023-08-01T11:37:26;99052.09;;;22.36;94.82
80198;BME280;69517;52.030;7.106;2023-08-01T11:39:52;99053.06;;;22.35;94.96
80198;BME280;69517;52.030;7.106;2023-08-01T11:42:19;99060.13;;;22.35;94.04
80198;BME280;69517;52.030;7.106;2023-08-01T11:44:45;99057.34;;;22.36;94.53
80198;BME280;69517;52.030;7.106;2023-08-01T11:47:11;99056.75;;;22.42;94.41
80198;BME280;69517;52.030;7.106;2023-08-01T11:49:39;99065.16;;;22.46;94.90
80198;BME280;69517;52.030;7.106;2023-08-01T11:52:06;99059.84;;;22.38;91.77
80198;BME280;69517;52.030;7.106;2023-08-01T11:54:33;99057.66;;;22.33;92.32
80198;BME280;69517;52.030;7.106;2023-08-01T11:57:09;99054.41;;;22.39;93.64
80198;BME280;69517;52.030;7.106;2023-08-01T11:59:35;99062.69;;;22.44;93.84
80198;BME280;69517;52.030;7.106;2023-08-01T12:02:11;99073.06;;;22.46;94.57
80198;BME280;69517;52.030;7.106;2023-08-01T12:04:46;99065.84;;;22.48;94.59
80198;BME280;69517;52.030;7.106;2023-08-01T12:07:12;99070.78;;;22.51;94.83
80198;BME280;69517;52.030;7.106;2023-08-01T12:09:40;99063.56;;;22.53;95.47
80198;BME280;69517;52.030;7.106;2023-08-01T12:12:06;99069.00;;;22.51;95.89
80198;BME280;69517;52.030;7.106;2023-08-01T12:14:33;99061.41;;;22.48;94.83
80198;BME280;69517;52.030;7.106;2023-08-01T12:16:59;99062.25;;;22.49;95.20
80198;BME280;69517;52.030;7.106;2023-08-01T12:19:25;99065.84;;;22.48;95.26
80198;BME280;69517;52.030;7.106;2023-08-01T12:21:51;99067.66;;;22.47;95.33
80198;BME280;69517;52.030;7.106;2023-08-01T12:24:17;99065.84;;;22.48;95.77
80198;BME280;69517;52.030;7.106;2023-08-01T12:26:45;99062.25;;;22.49;95.53
80198;BME280;69517;52.030;7.106;2023-08-01T12:29:11;99071.94;;;22.48;96.09
80198;BME280;69517;52.030;7.106;2023-08-01T12:31:38;99068.16;;;22.51;95.91
80198;BME280;69517;52.030;7.106;2023-08-01T12:34:04;99072.44;;;22.52;95.91
80198;BME280;69517;52.030;7.106;2023-08-01T12:36:30;99073.28;;;22.52;96.11
80198;BME280;69517;52.030;7.106;2023-08-01T12:38:56;99074.09;;;22.53;96.02
80198;BME280;69517;52.030;7.106;2023-08-01T12:41:23;99079.38;;;22.53;95.55
80198;BME280;69517;52.030;7.106;2023-08-01T12:43:50;99080.34;;;22.52;95.86
80198;BME280;69517;52.030;7.106;2023-08-01T12:46:17;99071.47;;;22.53;96.12
80198;BME280;69517;52.030;7.106;2023-08-01T12:48:43;99074.09;;;22.53;96.70
80198;BME280;69517;52.030;7.106;2023-08-01T12:51:09;99069.75;;;22.61;96.93
80198;BME280;69517;52.030;7.106;2023-08-01T12:53:36;99070.72;;;22.60;96.58
80198;BME280;69517;52.030;7.106;2023-08-01T12:56:04;99074.47;;;22.58;96.60
80198;BME280;69517;52.030;7.106;2023-08-01T12:58:30;99066.91;;;22.55;96.74
80198;BME280;69517;52.030;7.106;2023-08-01T13:00:58;99078.25;;;22.55;96.81
80198;BME280;69517;52.030;7.106;2023-08-01T13:03:24;99071.34;;;22.54;95.77